< < Back
Terminal Aerodrome Forecast


Current Version              Previous Versions:   1  2  3  4  5  6  7  8  9  

Terminal Aerodrome Forecast

222
FTUS42 KCHS 232100 AAA
TAFSAV
TAF AMD
KSAV 232100Z 2321/2418 11011KT P6SM SCT040 BKN080
     FM240000 07004KT P6SM SCT030=



Latest METAR

577
SAUS80 KWBC 240800
MTRSAV
METAR KSAV 240753Z AUTO 03004KT 10SM CLR 24/22 A3019 RMK AO2 SLP221
T02390217 TSNO


USA.gov is the U.S. government's official web portal to all federal, state and local government web resources and services.